Date,TemperatureHighF,TemperatureAvgF,TemperatureLowF,DewpointHighF,DewpointAvgF,DewpointLowF,HumidityHigh,HumidityAvg,HumidityLow,PressureMaxIn,PressureMinIn,WindSpeedMaxMPH,WindSpeedAvgMPH,GustSpeedMaxMPH,PrecipitationSumIn
2013-1-1,58.0,52.9,47.0,-99.9,-99.9,-99.9,0,0,100,30.25,30.11,9,-741,11,0.00
2013-1-2,61.0,54.8,49.0,-99.9,-99.9,-99.9,0,0,100,30.16,30.05,10,-709,11,0.00
2013-1-3,70.0,57.6,47.0,-99.9,-99.9,-99.9,0,0,100,30.18,30.06,15,-749,23,0.00
2013-1-4,65.0,56.2,51.0,-99.9,-99.9,-99.9,0,0,100,30.28,30.17,11,-721,15,0.00
2013-1-5,57.0,52.9,48.0,-99.9,-99.9,-99.9,0,0,100,30.31,30.19,9,-734,12,0.00
2013-1-6,54.0,51.6,48.0,-99.9,-99.9,-99.9,0,0,100,30.21,30.04,23,-721,28,0.00
2013-1-7,67.0,57.2,52.0,-99.9,-99.9,-99.9,0,0,100,30.12,29.97,25,-718,29,0.00
2013-1-8,66.0,55.6,49.0,-99.9,-99.9,-99.9,0,0,100,30.12,30.03,10,-720,11,0.00
2013-1-9,61.0,55.1,51.0,-99.9,-99.9,-99.9,0,0,100,30.14,30.01,11,-762,11,0.00
2013-1-10,57.0,53.1,47.0,-99.9,-99.9,-99.9,0,0,100,30.12,29.94,28,-710,69,0.00
2013-1-11,53.0,48.9,46.0,-99.9,-99.9,-99.9,0,0,100,30.22,30.08,23,-719,31,0.00
2013-1-12,53.0,48.6,45.0,-99.9,-99.9,-99.9,0,0,100,30.18,30.08,22,-731,27,0.00
2013-1-13,55.0,48.0,43.0,-99.9,-99.9,-99.9,0,0,100,30.19,30.08,11,-683,14,0.00
2013-1-14,56.0,49.7,42.0,-99.9,-99.9,-99.9,0,0,100,30.35,30.19,17,-706,24,0.00
2013-1-15,55.0,50.1,43.0,-99.9,-99.9,-99.9,0,0,100,30.47,30.34,15,-726,17,0.00
2013-1-16,61.0,51.6,45.0,-99.9,-99.9,-99.9,0,0,100,30.36,30.14,9,-707,10,0.00
2013-1-17,70.0,60.0,52.0,-99.9,-99.9,-99.9,0,0,100,30.18,30.07,11,-741,12,0.00
2013-1-18,72.0,64.0,56.0,-99.9,-99.9,-99.9,0,0,100,30.15,30.06,12,-706,14,0.00
2013-1-19,77.0,64.5,55.0,-99.9,-99.9,-99.9,0,0,100,30.19,30.09,11,-698,15,0.00
2013-1-20,73.0,62.3,55.0,-99.9,-99.9,-99.9,0,0,100,30.14,30.02,13,-734,15,0.00
2013-1-21,72.0,61.9,56.0,-99.9,-99.9,-99.9,0,0,100,30.11,30.00,10,-748,12,0.00
2013-1-22,77.0,63.8,56.0,-99.9,-99.9,-99.9,0,0,100,30.10,30.01,13,-713,16,0.00
2013-1-23,74.0,65.1,58.0,-99.9,-99.9,-99.9,0,0,100,30.14,30.01,11,-699,15,0.00
2013-1-24,66.0,59.5,55.0,-99.9,-99.9,-99.9,0,0,100,30.22,30.10,17,-718,22,0.00
2013-1-25,65.0,61.8,58.0,-99.9,-99.9,-99.9,0,0,100,30.14,29.96,12,-727,17,0.00
2013-1-26,61.0,56.7,54.0,-99.9,-99.9,-99.9,0,0,100,30.01,29.91,10,-713,18,0.00
2013-1-27,60.0,54.9,53.0,-99.9,-99.9,-99.9,0,0,100,30.04,29.96,21,-733,27,0.00
2013-1-28,57.0,53.8,51.0,-99.9,-99.9,-99.9,0,0,100,30.19,30.04,21,-738,32,0.00
2013-1-29,58.0,52.9,49.0,-99.9,-99.9,-99.9,0,0,100,30.24,30.17,13,-727,19,0.00
2013-1-30,58.0,53.5,47.0,-99.9,-99.9,-99.9,0,0,100,30.35,30.23,7,-687,8,0.00
2013-1-31,61.0,57.6,51.0,-99.9,-99.9,-99.9,0,0,100,30.23,30.10,8,-692,9,0.00
2013-2-1,64.0,58.2,54.0,-99.9,-99.9,-99.9,0,0,100,30.19,30.11,11,-714,13,0.00
2013-2-2,72.0,60.9,56.0,-99.9,-99.9,-99.9,0,0,100,30.20,30.11,19,-748,29,0.00
2013-2-3,69.0,61.3,56.0,-99.9,-99.9,-99.9,0,0,100,30.14,29.99,11,-741,17,0.00
2013-2-4,56.0,54.1,50.0,-99.9,-99.9,-99.9,0,0,100,30.12,30.00,8,-720,11,0.00
2013-2-5,55.0,53.9,53.0,-99.9,-99.9,-99.9,0,0,100,30.11,30.01,11,-755,12,0.00
2013-2-6,57.0,54.8,52.0,-99.9,-99.9,-99.9,0,0,100,30.12,30.01,13,-734,14,0.00
2013-2-7,58.0,53.3,48.0,-99.9,-99.9,-99.9,0,0,100,30.15,29.99,14,-727,15,0.00
2013-2-8,54.0,49.7,46.0,-99.9,-99.9,-99.9,0,0,100,30.00,29.90,21,-702,28,0.00
2013-2-9,54.0,49.1,42.0,-99.9,-99.9,-99.9,0,0,100,30.11,29.95,8,-720,10,0.00
2013-2-10,55.0,50.8,47.0,-99.9,-99.9,-99.9,0,0,100,30.11,30.03,11,-706,13,0.00
2013-2-11,56.0,51.9,46.0,-99.9,-99.9,-99.9,0,0,100,30.25,30.08,15,-725,17,0.00
2013-2-12,56.0,52.4,47.0,-99.9,-99.9,-99.9,0,0,100,30.36,30.24,12,-718,15,0.00
2013-2-13,57.0,52.8,47.0,-99.9,-99.9,-99.9,0,0,100,30.28,30.15,10,-706,11,0.00
2013-2-14,58.0,53.2,47.0,-99.9,-99.9,-99.9,0,0,100,30.22,30.09,15,-699,16,0.00
2013-2-15,73.0,63.6,52.0,-99.9,-99.9,-99.9,0,0,100,30.19,30.13,11,-711,14,0.00
2013-2-16,78.0,64.0,55.0,-99.9,-99.9,-99.9,0,0,100,30.16,29.97,13,-706,14,0.00
2013-2-17,59.0,55.1,50.0,-99.9,-99.9,-99.9,0,0,100,30.04,29.94,12,-727,15,0.00
2013-2-18,57.0,54.6,54.0,-99.9,-99.9,-99.9,0,0,100,30.08,29.97,10,-751,13,0.00
2013-2-19,54.0,52.4,48.0,-99.9,-99.9,-99.9,0,0,100,30.00,29.73,27,-711,38,0.00
2013-2-20,56.0,50.8,44.0,-99.9,-99.9,-99.9,0,0,100,30.00,29.72,24,-711,29,0.00
2013-2-21,57.0,53.0,47.0,-99.9,-99.9,-99.9,0,0,100,30.10,29.99,20,-709,23,0.00
2013-2-22,57.0,53.0,47.0,-99.9,-99.9,-99.9,0,0,100,30.21,30.10,13,-721,14,0.00
2013-2-23,61.0,53.3,47.0,-99.9,-99.9,-99.9,0,0,100,30.17,29.93,27,-740,39,0.00
2013-2-24,59.0,56.4,54.0,-99.9,-99.9,-99.9,0,0,100,30.20,29.98,26,-716,63,0.00
2013-2-25,63.0,54.7,50.0,-99.9,-99.9,-99.9,0,0,100,30.23,30.08,11,-709,13,0.00
2013-2-26,60.0,53.2,47.0,-99.9,-99.9,-99.9,0,0,100,30.12,30.01,12,-727,13,0.00
2013-2-27,73.0,62.2,57.0,-99.9,-99.9,-99.9,0,0,100,30.27,30.11,18,-692,20,0.00
2013-2-28,70.0,60.6,55.0,-99.9,-99.9,-99.9,0,0,100,30.32,30.25,12,-692,17,0.00
2013-3-1,71.0,64.6,57.0,-99.9,-99.9,-99.9,0,0,100,30.30,30.15,11,-725,13,0.00
2013-3-2,73.0,62.7,57.0,-99.9,-99.9,-99.9,0,0,100,30.21,30.09,12,-732,14,0.00
2013-3-3,61.0,56.7,55.0,-99.9,-99.9,-99.9,0,0,100,30.11,30.00,15,-727,16,0.00
2013-3-4,59.0,55.4,54.0,-99.9,-99.9,-99.9,0,0,100,30.11,30.03,10,-727,12,0.00
2013-3-5,56.0,54.8,53.0,-99.9,-99.9,-99.9,0,0,100,30.14,30.06,17,-740,18,0.00
2013-3-6,55.0,53.3,50.0,-99.9,-99.9,-99.9,0,0,100,30.17,30.03,13,-708,15,0.00
2013-3-7,56.0,54.1,52.0,-99.9,-99.9,-99.9,0,0,100,30.03,29.85,11,-730,12,0.00
2013-3-8,55.0,51.9,46.0,-99.9,-99.9,-99.9,0,0,100,30.03,29.80,23,-704,26,0.00
2013-3-9,60.0,53.9,50.0,-99.9,-99.9,-99.9,0,0,100,30.22,30.03,16,-719,18,0.00
2013-3-10,65.0,55.6,49.0,-99.9,-99.9,-99.9,0,0,100,30.28,30.15,9,-730,13,0.00
2013-3-11,58.0,55.7,51.0,-99.9,-99.9,-99.9,0,0,100,30.19,30.06,10,-704,11,0.00
2013-3-12,57.0,53.4,51.0,-99.9,-99.9,-99.9,0,0,100,30.11,30.03,7,-726,9,0.00
2013-3-13,56.0,53.2,50.0,-99.9,-99.9,-99.9,0,0,100,30.14,30.04,10,-683,11,0.00
2013-3-14,57.0,53.6,50.0,-99.9,-99.9,-99.9,0,0,100,30.11,30.02,12,-730,13,0.00
2013-3-15,56.0,54.1,53.0,-99.9,-99.9,-99.9,0,0,100,30.06,29.96,9,-734,12,0.00
2013-3-16,55.0,53.6,53.0,-99.9,-99.9,-99.9,0,0,100,29.99,29.91,11,-678,14,0.00
2013-3-17,55.0,54.1,53.0,-99.9,-99.9,-99.9,0,0,100,30.03,29.96,9,-734,11,0.00
2013-3-18,57.0,56.5,55.0,-99.9,-99.9,-99.9,0,0,100,30.09,29.99,12,-713,15,0.00
2013-3-19,56.0,55.1,53.0,-99.9,-99.9,-99.9,0,0,100,30.14,30.05,11,-744,13,0.00
2013-3-20,60.0,56.8,54.0,-99.9,-99.9,-99.9,0,0,100,30.11,29.96,9,-732,12,0.00
2013-3-21,60.0,57.6,55.0,-99.9,-99.9,-99.9,0,0,100,29.97,29.82,17,-723,18,0.00
2013-3-22,60.0,57.2,54.0,-99.9,-99.9,-99.9,0,0,100,29.92,29.81,14,-760,15,0.00
2013-3-23,61.0,57.3,55.0,-99.9,-99.9,-99.9,0,0,100,30.03,29.92,12,-720,14,0.00
2013-3-24,59.0,57.2,55.0,-99.9,-99.9,-99.9,0,0,100,30.04,29.91,14,-727,16,0.00
2013-3-25,59.0,56.8,54.0,-99.9,-99.9,-99.9,0,0,100,30.00,29.91,9,-741,12,0.00
2013-3-26,58.0,56.5,54.0,-99.9,-99.9,-99.9,0,0,100,29.99,29.93,12,-753,14,0.00
2013-3-27,59.0,57.2,54.0,-99.9,-99.9,-99.9,0,0,100,30.05,29.94,12,-720,13,0.00
2013-3-28,58.0,56.6,55.0,-99.9,-99.9,-99.9,0,0,100,30.10,30.02,14,-713,15,0.00
2013-3-29,61.0,55.9,54.0,-99.9,-99.9,-99.9,0,0,100,30.13,30.06,13,-734,15,0.00
2013-3-30,57.0,55.6,54.0,-99.9,-99.9,-99.9,0,0,100,30.16,30.06,13,-699,14,0.00
2013-3-31,61.0,58.0,56.0,-99.9,-99.9,-99.9,0,0,100,30.15,30.07,15,-705,26,0.00
2013-4-1,60.0,56.4,53.0,-99.9,-99.9,-99.9,0,0,100,30.19,30.08,20,-726,22,0.00
2013-4-2,60.0,56.9,54.0,-99.9,-99.9,-99.9,0,0,100,30.11,30.01,12,-715,13,0.00
2013-4-3,60.0,57.2,55.0,-99.9,-99.9,-99.9,0,0,100,30.11,30.01,13,-711,16,0.00
2013-4-4,62.0,57.0,54.0,-99.9,-99.9,-99.9,0,0,100,30.13,30.02,16,-717,17,0.00
2013-4-5,60.0,58.6,58.0,-99.9,-99.9,-99.9,0,0,100,30.11,30.01,15,-702,17,0.00
2013-4-6,62.0,58.8,57.0,-99.9,-99.9,-99.9,0,0,100,30.10,29.96,13,-721,15,0.00
2013-4-7,63.0,59.2,56.0,-99.9,-99.9,-99.9,0,0,100,29.98,29.81,11,-716,13,0.00
2013-4-8,62.0,58.2,56.0,-99.9,-99.9,-99.9,0,0,100,29.84,29.68,27,-736,33,0.00
2013-4-9,69.0,61.6,57.0,-99.9,-99.9,-99.9,0,0,100,29.99,29.84,29,-729,35,0.00
2013-4-10,69.0,59.8,55.0,-99.9,-99.9,-99.9,0,0,100,30.11,29.96,18,-732,22,0.00
2013-4-11,66.0,58.2,55.0,-99.9,-99.9,-99.9,0,0,100,30.01,29.80,11,-713,13,0.00
2013-4-12,58.0,56.8,53.0,-99.9,-99.9,-99.9,0,0,100,29.91,29.81,16,-723,18,0.00
2013-4-13,58.0,55.9,53.0,-99.9,-99.9,-99.9,0,0,100,29.94,29.86,9,-741,10,0.00
2013-4-14,57.0,56.3,56.0,-99.9,-99.9,-99.9,0,0,100,29.90,29.84,9,-711,10,0.00
2013-4-15,58.0,56.0,54.0,-99.9,-99.9,-99.9,0,0,100,29.93,29.85,16,-705,18,0.00
2013-4-16,59.0,53.6,50.0,-99.9,-99.9,-99.9,0,0,100,29.96,29.88,20,-652,28,0.00
2013-4-17,63.0,59.7,57.0,-99.9,-99.9,-99.9,0,0,100,30.12,30.04,28,-4,32,0.00
2013-4-18,69.0,63.1,58.0,-99.9,-99.9,-99.9,0,0,100,30.21,30.12,22,3,25,0.00
2013-4-19,67.0,60.1,55.0,-99.9,-99.9,-99.9,0,0,100,30.17,29.97,15,-9,22,0.00
2013-4-20,65.0,58.6,56.0,-99.9,-99.9,-99.9,0,0,100,30.00,29.89,10,-16,12,0.00
2013-4-21,62.0,59.1,56.0,-99.9,-99.9,-99.9,0,0,100,30.03,29.95,9,5,11,0.00
2013-4-22,59.0,57.8,57.0,-99.9,-99.9,-99.9,0,0,100,30.02,29.92,14,7,20,0.00
2013-4-23,60.0,58.3,57.0,-99.9,-99.9,-99.9,0,0,100,29.99,29.88,18,-6,20,0.00
2013-4-24,60.0,58.0,57.0,-99.9,-99.9,-99.9,0,0,100,30.00,29.91,13,6,14,0.00
2013-4-25,61.0,59.9,58.0,-99.9,-99.9,-99.9,0,0,100,30.12,29.97,14,7,23,0.00
2013-4-26,61.0,58.9,56.0,-99.9,-99.9,-99.9,0,0,100,30.17,30.11,14,-15,16,0.00
2013-4-27,59.0,58.3,56.0,-99.9,-99.9,-99.9,0,0,100,30.16,30.00,13,-15,15,0.00
2013-4-28,60.0,58.1,55.0,-99.9,-99.9,-99.9,0,0,100,30.03,29.88,12,-8,14,0.00
2013-4-29,60.0,58.0,55.0,-99.9,-99.9,-99.9,0,0,100,29.91,29.80,11,-29,12,0.00
2013-4-30,61.0,59.4,58.0,-99.9,-99.9,-99.9,0,0,100,29.91,29.84,11,-15,12,0.00
2013-5-1,62.0,60.9,59.0,-99.9,-99.9,-99.9,0,0,100,30.10,29.90,15,7,17,0.00
2013-5-2,67.0,61.5,57.0,-99.9,-99.9,-99.9,0,0,100,30.14,29.99,12,-3,19,0.00
2013-5-3,76.0,68.0,62.0,-99.9,-99.9,-99.9,0,0,100,30.01,29.78,10,-52,23,0.00
2013-5-4,65.0,61.0,58.0,-99.9,-99.9,-99.9,0,0,100,29.85,29.77,14,1,17,0.00
2013-5-5,62.0,60.4,58.0,-99.9,-99.9,-99.9,0,0,100,29.94,29.83,18,13,38,0.00
2013-5-6,62.0,60.4,58.0,-99.9,-99.9,-99.9,0,0,100,30.02,29.90,12,7,16,0.00
2013-5-7,63.0,61.2,59.0,-99.9,-99.9,-99.9,0,0,100,30.07,29.99,16,8,17,0.00
2013-5-8,65.0,60.9,58.0,-99.9,-99.9,-99.9,0,0,100,30.11,30.07,17,9,19,0.00
2013-5-9,64.0,60.5,57.0,-99.9,-99.9,-99.9,0,0,100,30.10,30.03,14,0,20,0.00
2013-5-10,64.0,60.3,59.0,-99.9,-99.9,-99.9,0,0,100,30.11,30.01,18,-7,26,0.00
2013-5-11,63.0,61.1,59.0,-99.9,-99.9,-99.9,0,0,100,30.08,29.98,17,-35,19,0.00
2013-5-12,70.0,61.6,59.0,-99.9,-99.9,-99.9,0,0,100,30.06,29.90,11,-23,34,0.00
2013-5-13,75.0,68.0,64.0,-99.9,-99.9,-99.9,0,0,100,29.98,29.86,14,-58,15,0.00
2013-5-14,67.0,61.3,59.0,-99.9,-99.9,-99.9,0,0,100,30.00,29.90,23,9,30,0.00
2013-5-15,63.0,60.5,59.0,-99.9,-99.9,-99.9,0,0,100,30.06,29.96,15,7,17,0.00
2013-5-16,64.0,58.1,60.0,-99.9,-99.9,-99.9,0,0,100,29.99,29.91,18,7,54,0.00
2013-5-17,63.0,61.2,61.0,-99.9,-99.9,-99.9,0,0,100,30.00,29.91,15,-1,16,0.00
2013-5-18,64.0,61.7,59.0,-99.9,-99.9,-99.9,0,0,100,30.05,29.98,14,-22,28,0.00
2013-5-19,64.0,61.9,59.0,-99.9,-99.9,-99.9,0,0,100,29.99,29.89,11,-22,13,0.00
2013-5-20,66.0,63.7,61.0,-99.9,-99.9,-99.9,0,0,100,29.96,29.89,13,-1,14,0.00
2013-5-21,65.0,63.3,61.0,-99.9,-99.9,-99.9,0,0,100,29.96,29.85,14,-21,15,0.00
2013-5-22,65.0,62.8,61.0,-99.9,-99.9,-99.9,0,0,100,29.86,29.79,15,0,18,0.00
2013-5-23,64.0,62.0,61.0,-99.9,-99.9,-99.9,0,0,100,29.93,29.83,19,-5,21,0.00
2013-5-24,65.0,61.8,59.0,-99.9,-99.9,-99.9,0,0,100,30.01,29.91,16,1,24,0.00
2013-5-25,62.0,61.1,59.0,-99.9,-99.9,-99.9,0,0,100,30.05,29.97,14,8,17,0.00
2013-5-26,64.0,61.8,60.0,-99.9,-99.9,-99.9,0,0,100,30.06,29.99,13,-7,47,0.00
2013-5-27,64.0,62.2,59.0,-99.9,-99.9,-99.9,0,0,100,30.01,29.86,13,6,15,0.00
2013-5-28,66.0,63.8,61.0,-99.9,-99.9,-99.9,0,0,100,29.89,29.72,24,0,29,0.00
2013-5-29,70.0,64.7,63.0,-99.9,-99.9,-99.9,0,0,100,29.82,29.70,23,9,28,0.00
2013-5-30,66.0,64.6,63.0,-99.9,-99.9,-99.9,0,0,100,29.88,29.77,11,-2,12,0.00
2013-5-31,66.0,64.3,63.0,-99.9,-99.9,-99.9,0,0,100,29.92,29.83,15,8,15,0.00
2013-6-1,65.0,63.4,62.0,-99.9,-99.9,-99.9,0,0,100,29.87,29.77,15,-1,17,0.00
2013-6-2,65.0,64.2,63.0,-99.9,-99.9,-99.9,0,0,100,29.85,29.78,11,7,13,0.00
2013-6-3,66.0,64.1,63.0,-99.9,-99.9,-99.9,0,0,100,29.90,29.80,12,7,24,0.00
2013-6-4,65.0,63.7,62.0,-99.9,-99.9,-99.9,0,0,100,29.97,29.88,18,9,33,0.00
2013-6-5,63.0,61.9,61.0,-99.9,-99.9,-99.9,0,0,100,30.01,29.93,20,11,25,0.00
2013-6-6,63.0,61.5,61.0,-99.9,-99.9,-99.9,0,0,100,29.97,29.89,15,7,16,0.00
2013-6-7,62.0,61.0,60.0,-99.9,-99.9,-99.9,0,0,100,29.93,29.81,12,7,14,0.00
2013-6-8,64.0,62.5,61.0,-99.9,-99.9,-99.9,0,0,100,29.91,29.80,13,-9,16,0.00
2013-6-9,64.0,62.6,61.0,-99.9,-99.9,-99.9,0,0,100,29.94,29.88,12,0,13,0.00
2013-6-10,65.0,63.8,62.0,-99.9,-99.9,-99.9,0,0,100,29.97,29.90,18,-13,52,0.00
2013-6-11,66.0,63.5,62.0,-99.9,-99.9,-99.9,0,0,100,29.95,29.89,15,0,26,0.00
2013-6-12,64.0,61.9,60.0,-99.9,-99.9,-99.9,0,0,100,30.04,29.94,13,-7,15,0.00
2013-6-13,64.0,62.0,61.0,-99.9,-99.9,-99.9,0,0,100,30.03,29.91,17,7,18,0.00
2013-6-14,65.0,62.8,61.0,-99.9,-99.9,-99.9,0,0,100,29.93,29.86,11,-1,20,0.00
2013-6-15,64.0,62.6,61.0,-99.9,-99.9,-99.9,0,0,100,29.99,29.90,14,8,37,0.00
2013-6-16,64.0,62.1,61.0,-99.9,-99.9,-99.9,0,0,100,30.05,29.97,14,-10,15,0.00
2013-6-17,66.0,61.9,60.0,-99.9,-99.9,-99.9,0,0,100,30.00,29.89,11,-45,12,0.00
2013-6-18,65.0,63.8,62.0,-99.9,-99.9,-99.9,0,0,100,29.93,29.83,18,-35,21,0.00
2013-6-19,69.0,64.0,60.0,-99.9,-99.9,-99.9,0,0,100,29.88,29.80,15,-24,16,0.00
2013-6-20,68.0,63.9,61.0,-99.9,-99.9,-99.9,0,0,100,29.88,29.80,10,-45,11,0.00
2013-6-22,68.0,64.7,63.0,-99.9,-99.9,-99.9,0,0,100,29.93,29.83,13,9,15,0.00
2013-6-23,65.0,63.7,62.0,-99.9,-99.9,-99.9,0,0,100,29.90,29.81,16,-10,19,0.00
2013-6-24,66.0,64.4,62.0,-99.9,-99.9,-99.9,0,0,100,29.96,29.83,15,8,16,0.00
2013-6-25,65.0,64.2,63.0,-99.9,-99.9,-99.9,0,0,100,30.01,29.91,13,-14,52,0.00
2013-6-26,67.0,64.5,63.0,-99.9,-99.9,-99.9,0,0,100,30.00,29.92,9,6,11,0.00
2013-6-27,66.0,64.6,63.0,-99.9,-99.9,-99.9,0,0,100,30.04,29.98,10,-6,28,0.00
2013-6-28,65.0,63.3,62.0,-99.9,-99.9,-99.9,0,0,100,30.00,29.89,9,-34,11,0.00
2013-6-29,67.0,64.2,61.0,-99.9,-99.9,-99.9,0,0,100,29.90,29.74,6,-17,14,0.00
2013-6-30,73.0,66.9,65.0,-99.9,-99.9,-99.9,0,0,100,29.83,29.71,16,-59,17,0.00
2013-7-1,70.0,67.0,65.0,-99.9,-99.9,-99.9,0,0,100,29.91,29.81,12,-58,13,0.00
2013-7-2,67.0,65.4,64.0,-99.9,-99.9,-99.9,0,0,100,30.03,29.88,11,-14,12,0.00
2013-7-3,65.0,64.5,64.0,-99.9,-99.9,-99.9,0,0,100,29.95,29.82,14,-6,15,0.00
2013-7-4,66.0,64.5,63.0,-99.9,-99.9,-99.9,0,0,100,29.85,29.77,12,6,36,0.00
2013-7-5,67.0,64.6,62.0,-99.9,-99.9,-99.9,0,0,100,29.86,29.78,13,6,16,0.00
2013-7-6,67.0,65.3,64.0,-99.9,-99.9,-99.9,0,0,100,29.84,29.77,13,6,27,0.00
2013-7-7,65.0,64.4,63.0,-99.9,-99.9,-99.9,0,0,100,29.87,29.79,15,-11,16,0.00
2013-7-8,67.0,64.1,63.0,-99.9,-99.9,-99.9,0,0,100,29.94,29.86,14,-5,20,0.00
2013-7-9,66.0,64.7,63.0,-99.9,-99.9,-99.9,0,0,100,30.01,29.90,10,6,10,0.00
2013-7-10,68.0,65.6,63.0,-99.9,-99.9,-99.9,0,0,100,29.99,29.90,12,-23,15,0.00
2013-7-11,70.0,67.5,66.0,-99.9,-99.9,-99.9,0,0,100,29.98,29.90,9,-24,11,0.00
2013-7-12,73.0,64.8,60.0,-99.9,-99.9,-99.9,0,0,100,29.94,29.87,17,-38,19,0.00
2013-7-13,64.0,61.9,60.0,-99.9,-99.9,-99.9,0,0,100,29.97,29.88,13,-24,15,0.00
2013-7-14,66.0,64.0,62.0,-99.9,-99.9,-99.9,0,0,100,29.94,29.84,12,-20,14,0.00
2013-7-15,68.0,65.3,63.0,-99.9,-99.9,-99.9,0,0,100,29.89,29.81,17,-42,19,0.00
2013-7-16,65.0,63.4,61.0,-99.9,-99.9,-99.9,0,0,100,29.98,29.86,16,6,17,0.00
2013-7-17,68.0,64.7,62.0,-99.9,-99.9,-99.9,0,0,100,30.03,29.96,18,-63,22,0.00
2013-7-18,66.0,63.5,62.0,-99.9,-99.9,-99.9,0,0,100,30.00,29.87,14,7,25,0.00
2013-7-19,66.0,63.6,62.0,-99.9,-99.9,-99.9,0,0,100,29.92,29.84,13,5,15,0.00
2013-7-20,66.0,63.9,63.0,-99.9,-99.9,-99.9,0,0,100,29.89,29.80,13,-29,16,0.00
2013-7-21,67.0,65.7,65.0,-99.9,-99.9,-99.9,0,0,100,29.93,29.82,7,-20,8,0.00
2013-7-22,66.0,65.2,64.0,-99.9,-99.9,-99.9,0,0,100,29.99,29.91,13,8,14,0.00
2013-7-23,65.0,64.3,63.0,-99.9,-99.9,-99.9,0,0,100,30.04,29.94,18,9,24,0.00
2013-7-24,64.0,62.2,61.0,-99.9,-99.9,-99.9,0,0,100,29.99,29.91,19,7,22,0.00
2013-7-25,64.0,61.9,60.0,-99.9,-99.9,-99.9,0,0,100,30.03,29.94,16,-8,24,0.00
2013-7-26,66.0,63.1,61.0,-99.9,-99.9,-99.9,0,0,100,30.10,29.99,14,6,18,0.00
2013-7-27,63.0,61.8,60.0,-99.9,-99.9,-99.9,0,0,100,30.02,29.90,13,7,15,0.00
2013-7-28,63.0,61.6,60.0,-99.9,-99.9,-99.9,0,0,100,29.94,29.89,13,-7,14,0.00
2013-7-29,64.0,62.9,62.0,-99.9,-99.9,-99.9,0,0,100,30.04,29.93,14,-10,22,0.00
2013-7-30,64.0,62.9,62.0,-99.9,-99.9,-99.9,0,0,100,30.14,30.04,16,-14,18,0.00
2013-7-31,64.0,62.2,61.0,-99.9,-99.9,-99.9,0,0,100,30.12,30.01,16,8,19,0.00
2013-8-1,64.0,61.9,60.0,-99.9,-99.9,-99.9,0,0,100,30.04,29.93,13,-27,14,0.00
2013-8-2,66.0,63.6,62.0,-99.9,-99.9,-99.9,0,0,100,29.98,29.92,15,6,16,0.00
2013-8-3,66.0,63.3,62.0,-99.9,-99.9,-99.9,0,0,100,30.01,29.95,15,8,51,0.00
2013-8-4,64.0,62.3,61.0,-99.9,-99.9,-99.9,0,0,100,30.04,29.94,13,-26,29,0.00
2013-8-5,64.0,61.6,59.0,-99.9,-99.9,-99.9,0,0,100,30.02,29.94,14,6,15,0.00
2013-8-6,65.0,62.5,61.0,-99.9,-99.9,-99.9,0,0,100,30.06,29.98,17,7,24,0.00
2013-8-7,63.0,62.4,61.0,-99.9,-99.9,-99.9,0,0,100,30.09,30.00,15,-6,17,0.00
2013-8-8,64.0,62.5,61.0,-99.9,-99.9,-99.9,0,0,100,30.01,29.92,16,7,17,0.00
2013-8-9,64.0,62.7,62.0,-99.9,-99.9,-99.9,0,0,100,29.98,29.91,11,6,13,0.00
2013-8-10,65.0,63.2,61.0,-99.9,-99.9,-99.9,0,0,100,30.04,29.97,14,-9,21,0.00
2013-8-11,64.0,62.4,61.0,-99.9,-99.9,-99.9,0,0,100,30.01,29.91,16,-7,21,0.00
2013-8-31,74.0,62.8,70.0,-99.9,-99.9,-99.9,0,0,100,29.98,29.89,6,3,15,0.00
2013-9-1,69.0,68.8,68.0,-99.9,-99.9,-99.9,0,0,100,29.94,29.88,8,4,10,0.00
2013-9-2,69.0,67.2,66.0,-99.9,-99.9,-99.9,0,0,100,29.93,29.81,9,5,11,0.00
2013-9-3,71.0,69.0,67.0,-99.9,-99.9,-99.9,0,0,100,29.87,29.83,8,6,9,0.00
2013-9-4,72.0,70.7,69.0,-99.9,-99.9,-99.9,0,0,100,29.88,29.84,6,-163,8,0.00
2013-9-5,70.0,69.3,68.0,-99.9,-99.9,-99.9,0,0,100,29.88,29.82,8,4,9,0.00
2013-9-6,69.0,68.2,67.0,-99.9,-99.9,-99.9,0,0,100,29.87,29.79,9,4,9,0.00